createdAt,value
2024-01-05T00:00:05.109Z,7.20
2024-01-05T00:02:34.078Z,7.20
2024-01-05T00:05:00.800Z,7.10
2024-01-05T00:07:27.623Z,7.20
2024-01-05T00:09:54.339Z,7.20
2024-01-05T00:12:21.187Z,7.20
2024-01-05T00:14:48.051Z,7.20
2024-01-05T00:17:14.910Z,7.20
2024-01-05T00:19:41.723Z,7.20
2024-01-05T00:22:08.736Z,7.10
2024-01-05T00:24:36.845Z,7.00
2024-01-05T00:27:04.507Z,7.00
2024-01-05T00:29:31.310Z,7.10
2024-01-05T00:31:58.079Z,7.00
2024-01-05T00:34:25.000Z,7.10
2024-01-05T00:36:52.016Z,7.20
2024-01-05T00:39:18.834Z,7.20
2024-01-05T00:41:47.352Z,7.20
2024-01-05T00:44:14.360Z,7.20
2024-01-05T00:46:41.330Z,7.30
2024-01-05T00:49:08.311Z,7.30
2024-01-05T00:51:35.277Z,7.30
2024-01-05T00:54:02.215Z,7.30
2024-01-05T00:56:29.632Z,7.30
2024-01-05T00:58:56.354Z,7.30
2024-01-05T01:01:23.348Z,7.40
2024-01-05T01:03:50.313Z,7.40
2024-01-05T01:06:17.263Z,7.40
2024-01-05T01:08:43.990Z,7.40
2024-01-05T01:11:17.305Z,7.40
2024-01-05T01:13:44.924Z,7.40
2024-01-05T01:16:12.573Z,7.40
2024-01-05T01:18:39.872Z,7.50
2024-01-05T01:21:06.977Z,7.50
2024-01-05T01:23:36.605Z,7.50
2024-01-05T01:26:03.348Z,7.50
2024-01-05T01:28:30.747Z,7.50
2024-01-05T01:30:57.893Z,7.50
2024-01-05T01:33:25.050Z,7.50
2024-01-05T01:35:51.881Z,7.50
2024-01-05T01:38:18.719Z,7.50
2024-01-05T01:40:52.084Z,7.60
2024-01-05T01:43:22.991Z,7.50
2024-01-05T01:45:49.818Z,7.60
2024-01-05T01:48:18.340Z,7.60
2024-01-05T01:50:45.615Z,7.60
2024-01-05T01:53:14.503Z,7.60
2024-01-05T01:55:44.686Z,7.60
2024-01-05T01:58:11.950Z,7.60
2024-01-05T02:00:39.151Z,7.60
2024-01-05T02:03:06.872Z,7.60
2024-01-05T02:05:33.844Z,7.60
2024-01-05T02:08:00.954Z,7.60
2024-01-05T02:10:27.943Z,7.70
2024-01-05T02:12:54.654Z,7.70
2024-01-05T02:15:21.476Z,7.70
2024-01-05T02:17:48.391Z,7.60
2024-01-05T02:20:15.267Z,7.60
2024-01-05T02:22:44.607Z,7.60
2024-01-05T02:25:11.873Z,7.60
2024-01-05T02:27:38.788Z,7.60
2024-01-05T02:30:05.976Z,7.60
2024-01-05T02:32:32.771Z,7.70
2024-01-05T02:34:59.732Z,7.70
2024-01-05T02:37:27.837Z,7.60
2024-01-05T02:39:54.684Z,7.60
2024-01-05T02:42:21.382Z,7.70
2024-01-05T02:44:48.283Z,7.70
2024-01-05T02:47:15.038Z,7.60
2024-01-05T02:49:41.982Z,7.70
2024-01-05T02:52:08.796Z,7.70
2024-01-05T02:54:35.651Z,7.60
2024-01-05T02:57:02.434Z,7.70
2024-01-05T02:59:29.353Z,7.60
2024-01-05T03:01:56.455Z,7.60
2024-01-05T03:04:23.220Z,7.60
2024-01-05T03:06:50.133Z,7.50
2024-01-05T03:09:16.995Z,7.50
2024-01-05T03:11:43.670Z,7.50
2024-01-05T03:14:10.439Z,7.40
2024-01-05T03:16:37.276Z,7.40
2024-01-05T03:19:04.123Z,7.30
2024-01-05T03:21:30.902Z,7.30
2024-01-05T03:23:57.778Z,7.20
2024-01-05T03:26:24.517Z,7.20
2024-01-05T03:28:51.341Z,7.20
2024-01-05T03:31:18.121Z,7.10
2024-01-05T03:33:46.190Z,7.10
2024-01-05T03:36:13.567Z,7.10
2024-01-05T03:38:40.507Z,7.00
2024-01-05T03:41:07.455Z,7.00
2024-01-05T03:43:34.290Z,6.90
2024-01-05T03:46:01.003Z,6.90
2024-01-05T03:48:28.085Z,6.80
2024-01-05T03:50:55.023Z,6.80
2024-01-05T03:53:21.844Z,6.70
2024-01-05T03:55:48.574Z,6.70
2024-01-05T03:58:16.074Z,6.70
2024-01-05T04:00:42.989Z,6.70
2024-01-05T04:03:09.946Z,6.60
2024-01-05T04:05:37.033Z,6.60
2024-01-05T04:08:04.340Z,6.60
2024-01-05T04:10:31.256Z,6.50
2024-01-05T04:12:57.943Z,6.50
2024-01-05T04:15:24.751Z,6.50
2024-01-05T04:17:51.690Z,6.50
2024-01-05T04:20:18.413Z,6.50
2024-01-05T04:22:45.258Z,6.50
2024-01-05T04:25:12.280Z,6.50
2024-01-05T04:27:40.253Z,6.50
2024-01-05T04:30:07.338Z,6.50
2024-01-05T04:32:34.220Z,6.40
2024-01-05T04:35:00.913Z,6.40
2024-01-05T04:37:27.616Z,6.40
2024-01-05T04:39:54.381Z,6.40
2024-01-05T04:42:21.254Z,6.40
2024-01-05T04:44:48.095Z,6.40
2024-01-05T04:47:14.841Z,6.40
2024-01-05T04:49:41.555Z,6.40
2024-01-05T04:52:08.295Z,6.40
2024-01-05T04:54:35.029Z,6.40
2024-01-05T04:57:02.864Z,6.40
2024-01-05T04:59:29.767Z,6.40
2024-01-05T05:01:56.611Z,6.40
2024-01-05T05:04:23.363Z,6.40
2024-01-05T05:06:50.217Z,6.40
2024-01-05T05:09:17.329Z,6.40
2024-01-05T05:11:44.441Z,6.40
2024-01-05T05:14:11.511Z,6.40
2024-01-05T05:16:38.343Z,6.40
2024-01-05T05:19:05.450Z,6.50
2024-01-05T05:21:32.759Z,6.50
2024-01-05T05:23:59.572Z,6.50
2024-01-05T05:26:26.400Z,6.60
2024-01-05T05:28:53.127Z,6.70
2024-01-05T05:31:20.463Z,6.70
2024-01-05T05:33:47.356Z,6.70
2024-01-05T05:36:14.328Z,6.80
2024-01-05T05:38:41.028Z,6.80
2024-01-05T05:41:07.806Z,6.90
2024-01-05T05:43:34.771Z,6.80
2024-01-05T05:46:01.526Z,6.90
2024-01-05T05:48:28.779Z,6.90
2024-01-05T05:50:55.586Z,7.00
2024-01-05T05:53:22.323Z,7.00
2024-01-05T05:55:50.106Z,7.00
2024-01-05T05:58:16.807Z,7.10
2024-01-05T06:00:43.803Z,7.10
2024-01-05T06:03:13.498Z,7.10
2024-01-05T06:05:41.307Z,7.20
2024-01-05T06:08:09.289Z,7.20
2024-01-05T06:10:36.123Z,7.20
2024-01-05T06:13:03.943Z,7.20
2024-01-05T06:15:30.813Z,7.30
2024-01-05T06:17:57.731Z,7.30
2024-01-05T06:20:24.577Z,7.30
2024-01-05T06:22:51.335Z,7.40
2024-01-05T06:25:18.557Z,7.40
2024-01-05T06:27:45.309Z,7.40
2024-01-05T06:30:12.460Z,7.40
2024-01-05T06:32:39.410Z,7.40
2024-01-05T06:35:06.846Z,7.50
2024-01-05T06:37:33.725Z,7.40
2024-01-05T06:40:00.765Z,7.50
2024-01-05T06:42:27.533Z,7.50
2024-01-05T06:44:54.499Z,7.50
2024-01-05T06:47:21.226Z,7.50
2024-01-05T06:49:48.154Z,7.50
2024-01-05T06:52:14.946Z,7.60
2024-01-05T06:54:41.869Z,7.50
2024-01-05T06:57:08.735Z,7.50
2024-01-05T06:59:37.693Z,7.50
2024-01-05T07:02:05.072Z,7.60
2024-01-05T07:04:31.926Z,7.50
2024-01-05T07:06:58.684Z,7.50
2024-01-05T07:09:26.165Z,7.50
2024-01-05T07:11:53.603Z,7.50
2024-01-05T07:14:20.343Z,7.50
2024-01-05T07:16:48.117Z,7.50
2024-01-05T07:19:15.185Z,7.50
2024-01-05T07:21:42.441Z,7.50
2024-01-05T07:24:09.807Z,7.40
2024-01-05T07:26:36.559Z,7.40
2024-01-05T07:29:03.507Z,7.30
2024-01-05T07:31:30.705Z,7.30
2024-01-05T07:34:00.094Z,7.30
2024-01-05T07:36:28.564Z,7.30
2024-01-05T07:39:00.134Z,7.30
2024-01-05T07:41:31.628Z,7.40
2024-01-05T07:43:58.378Z,7.40
2024-01-05T07:46:28.177Z,7.40
2024-01-05T07:48:56.180Z,7.40
2024-01-05T07:51:23.493Z,7.50
2024-01-05T07:53:50.875Z,7.50
2024-01-05T07:56:18.465Z,7.50
2024-01-05T07:58:46.213Z,7.50
2024-01-05T08:01:17.442Z,7.50
2024-01-05T08:03:45.731Z,7.60
2024-01-05T08:06:17.081Z,7.60
2024-01-05T08:08:48.094Z,7.60
2024-01-05T08:11:15.768Z,7.60
2024-01-05T08:13:45.782Z,7.70
2024-01-05T08:16:13.053Z,7.60
2024-01-05T08:18:40.659Z,7.70
2024-01-05T08:21:07.805Z,7.70
2024-01-05T08:23:34.897Z,7.70
2024-01-05T08:26:01.880Z,7.70
2024-01-05T08:28:31.365Z,7.70
2024-01-05T08:30:58.567Z,7.70
2024-01-05T08:33:25.483Z,7.80
2024-01-05T08:35:52.544Z,7.80
2024-01-05T08:38:19.331Z,7.80
2024-01-05T08:40:46.596Z,7.90
2024-01-05T08:43:13.488Z,7.90
2024-01-05T08:45:40.597Z,8.00
2024-01-05T08:48:07.810Z,8.00
2024-01-05T08:50:37.288Z,8.00
2024-01-05T08:53:11.532Z,8.10
2024-01-05T08:55:42.107Z,8.20
2024-01-05T08:58:11.565Z,8.20
2024-01-05T09:00:38.675Z,8.20
2024-01-05T09:03:06.055Z,8.20
2024-01-05T09:05:33.331Z,8.30
2024-01-05T09:08:00.836Z,8.30
2024-01-05T09:10:28.899Z,8.40
2024-01-05T09:12:58.099Z,8.30
2024-01-05T09:15:25.537Z,8.40
2024-01-05T09:17:52.896Z,8.40
2024-01-05T09:20:20.115Z,8.40
2024-01-05T09:22:47.618Z,8.40
2024-01-05T09:25:14.657Z,8.50
2024-01-05T09:27:41.770Z,8.50
2024-01-05T09:30:09.312Z,8.50
2024-01-05T09:32:36.472Z,8.50
2024-01-05T09:35:03.948Z,8.50
2024-01-05T09:37:30.852Z,8.50
2024-01-05T09:39:58.130Z,8.60
2024-01-05T09:42:25.308Z,8.60
2024-01-05T09:44:54.037Z,8.70
2024-01-05T09:47:21.168Z,8.70
2024-01-05T09:49:50.994Z,8.70
2024-01-05T09:52:21.093Z,8.70
2024-01-05T09:54:48.478Z,8.80
2024-01-05T09:57:16.876Z,8.80
2024-01-05T09:59:46.124Z,8.90
2024-01-05T10:02:16.223Z,8.90
2024-01-05T10:04:43.374Z,9.00
2024-01-05T10:07:10.264Z,9.00
2024-01-05T10:09:49.345Z,9.00
2024-01-05T10:12:16.720Z,9.10
2024-01-05T10:14:43.594Z,9.10
2024-01-05T10:17:11.230Z,9.10
2024-01-05T10:19:38.391Z,9.10
2024-01-05T10:22:12.028Z,9.20
2024-01-05T10:24:39.815Z,9.20
2024-01-05T10:27:08.004Z,9.10
2024-01-05T10:29:38.715Z,9.10
2024-01-05T10:32:15.889Z,9.10
2024-01-05T10:34:45.379Z,9.10
2024-01-05T10:37:13.208Z,9.10
2024-01-05T10:39:50.024Z,9.10
2024-01-05T10:42:25.996Z,9.10
2024-01-05T10:44:54.200Z,9.10
2024-01-05T10:47:22.167Z,9.20
2024-01-05T10:49:51.166Z,9.20
2024-01-05T10:52:24.038Z,9.20
2024-01-05T10:54:53.815Z,9.20
2024-01-05T10:57:21.674Z,9.20
2024-01-05T10:59:52.322Z,9.30
2024-01-05T11:02:23.743Z,9.30
2024-01-05T11:05:26.197Z,9.40
2024-01-05T11:07:53.758Z,9.30
2024-01-05T11:10:20.833Z,9.30
2024-01-05T11:12:57.243Z,9.40
2024-01-05T11:15:30.440Z,9.30
2024-01-05T11:18:08.791Z,9.30
2024-01-05T11:20:54.894Z,9.30
2024-01-05T11:23:25.295Z,9.20
2024-01-05T11:25:54.548Z,9.30
2024-01-05T11:28:39.691Z,9.20
2024-01-05T11:31:06.681Z,9.20
2024-01-05T11:33:43.698Z,9.20
2024-01-05T11:36:10.718Z,9.10
2024-01-05T11:38:42.035Z,9.10
2024-01-05T11:41:16.142Z,9.00
2024-01-05T11:43:43.039Z,9.10
2024-01-05T11:46:09.974Z,9.10
2024-01-05T11:48:38.808Z,9.10
2024-01-05T11:51:09.978Z,9.10
2024-01-05T11:53:37.834Z,9.10
2024-01-05T11:56:09.499Z,9.10
2024-01-05T11:58:38.111Z,9.10
2024-01-05T12:01:07.485Z,9.20
2024-01-05T12:03:35.238Z,9.10
2024-01-05T12:06:03.100Z,9.10
2024-01-05T12:08:30.991Z,9.10
2024-01-05T12:10:58.881Z,9.10
2024-01-05T12:13:28.128Z,9.10
2024-01-05T12:16:01.199Z,9.10
2024-01-05T12:18:37.586Z,9.20
2024-01-05T12:21:07.335Z,9.10
2024-01-05T12:23:36.235Z,9.10
2024-01-05T12:26:04.942Z,9.10
2024-01-05T12:28:33.233Z,9.20
2024-01-05T12:31:00.606Z,9.20
2024-01-05T12:33:29.450Z,9.20
2024-01-05T12:35:57.060Z,9.10
2024-01-05T12:38:24.417Z,9.10
2024-01-05T12:40:52.298Z,9.10
2024-01-05T12:43:19.824Z,9.10
2024-01-05T12:45:50.174Z,9.10
2024-01-05T12:48:19.527Z,9.10
2024-01-05T12:50:46.577Z,9.10
2024-01-05T12:53:20.564Z,9.20
2024-01-05T12:55:48.614Z,9.20
2024-01-05T12:58:15.690Z,9.30
2024-01-05T13:00:44.697Z,9.20
2024-01-05T13:03:15.577Z,9.20
2024-01-05T13:05:43.664Z,9.20
2024-01-05T13:08:10.708Z,9.20
2024-01-05T13:10:40.856Z,9.20
2024-01-05T13:13:08.142Z,9.20
2024-01-05T13:15:35.708Z,9.20
2024-01-05T13:18:07.758Z,9.10
2024-01-05T13:20:37.770Z,9.10
2024-01-05T13:23:05.740Z,9.10
2024-01-05T13:25:35.476Z,9.10
2024-01-05T13:28:02.877Z,9.10
2024-01-05T13:30:29.978Z,9.10
2024-01-05T13:32:57.617Z,9.10
2024-01-05T13:35:24.780Z,9.10
2024-01-05T13:37:51.867Z,9.10
2024-01-05T13:40:18.834Z,9.00
2024-01-05T13:42:46.691Z,9.10
2024-01-05T13:45:14.386Z,9.00
2024-01-05T13:47:41.463Z,9.10
2024-01-05T13:50:08.724Z,9.00
2024-01-05T13:52:35.615Z,9.00
2024-01-05T13:55:02.863Z,9.00
2024-01-05T13:57:29.800Z,9.00
2024-01-05T13:59:56.937Z,9.00
2024-01-05T14:02:24.268Z,9.00
2024-01-05T14:04:51.379Z,9.00
2024-01-05T14:07:18.392Z,9.00
2024-01-05T14:09:45.667Z,8.90
2024-01-05T14:12:12.858Z,9.00
2024-01-05T14:14:40.215Z,9.00
2024-01-05T14:17:07.899Z,8.90
2024-01-05T14:19:35.151Z,8.90
2024-01-05T14:22:02.869Z,8.90
2024-01-05T14:24:33.059Z,8.80
2024-01-05T14:27:02.193Z,8.80
2024-01-05T14:29:32.737Z,8.80
2024-01-05T14:32:04.648Z,8.80
2024-01-05T14:34:42.644Z,8.80
2024-01-05T14:37:10.356Z,8.80
2024-01-05T14:39:40.849Z,8.80
2024-01-05T14:42:13.247Z,8.80
2024-01-05T14:44:40.750Z,8.80
2024-01-05T14:47:09.317Z,8.80
2024-01-05T14:49:41.772Z,8.80
2024-01-05T14:52:09.326Z,8.80
2024-01-05T14:54:36.635Z,8.70
2024-01-05T14:57:05.456Z,8.80
2024-01-05T14:59:36.306Z,8.70
2024-01-05T15:02:04.723Z,8.70
2024-01-05T15:04:35.151Z,8.70
2024-01-05T15:07:03.373Z,8.70
2024-01-05T15:09:34.523Z,8.70
2024-01-05T15:12:01.960Z,8.70
2024-01-05T15:14:30.757Z,8.70
2024-01-05T15:16:58.480Z,8.70
2024-01-05T15:19:25.712Z,8.70
2024-01-05T15:21:53.051Z,8.70
2024-01-05T15:24:20.746Z,8.70
2024-01-05T15:26:48.667Z,8.70
2024-01-05T15:29:16.500Z,8.70
2024-01-05T15:31:44.055Z,8.70
2024-01-05T15:34:11.287Z,8.60
2024-01-05T15:36:38.341Z,8.60
2024-01-05T15:39:07.208Z,8.60
2024-01-05T15:41:35.157Z,8.50
2024-01-05T15:44:02.941Z,8.50
2024-01-05T15:46:29.861Z,8.50
2024-01-05T15:48:57.123Z,8.50
2024-01-05T15:51:26.797Z,8.50
2024-01-05T15:53:56.708Z,8.50
2024-01-05T15:56:25.659Z,8.40
2024-01-05T15:58:52.464Z,8.40
2024-01-05T16:01:19.337Z,8.40
2024-01-05T16:03:46.541Z,8.40
2024-01-05T16:06:16.500Z,8.40
2024-01-05T16:08:47.879Z,8.30
2024-01-05T16:11:15.554Z,8.30
2024-01-05T16:13:43.314Z,8.30
2024-01-05T16:16:12.018Z,8.30
2024-01-05T16:18:39.000Z,8.30
2024-01-05T16:21:06.053Z,8.20
2024-01-05T16:23:32.916Z,8.20
2024-01-05T16:25:59.816Z,8.20
2024-01-05T16:28:26.870Z,8.20
2024-01-05T16:30:53.874Z,8.20
2024-01-05T16:33:20.840Z,8.20
2024-01-05T16:35:47.848Z,8.20
2024-01-05T16:38:14.680Z,8.20
2024-01-05T16:40:41.514Z,8.10
2024-01-05T16:43:08.275Z,8.20
2024-01-05T16:45:35.404Z,8.10
2024-01-05T16:48:02.227Z,8.10
2024-01-05T16:50:29.112Z,8.10
2024-01-05T16:52:55.846Z,8.10
2024-01-05T16:55:22.708Z,8.10
2024-01-05T16:57:49.575Z,8.10
2024-01-05T17:00:16.978Z,8.10
2024-01-05T17:02:43.844Z,8.20
2024-01-05T17:05:13.319Z,8.20
2024-01-05T17:07:40.218Z,8.20
2024-01-05T17:10:07.737Z,8.10
2024-01-05T17:12:34.788Z,8.10
2024-01-05T17:15:01.701Z,8.10
2024-01-05T17:17:31.377Z,8.00
2024-01-05T17:20:13.083Z,8.10
2024-01-05T17:22:45.054Z,8.10
2024-01-05T17:25:11.975Z,8.10
2024-01-05T17:27:39.139Z,8.00
2024-01-05T17:30:07.194Z,8.00
2024-01-05T17:32:34.740Z,8.10
2024-01-05T17:35:01.739Z,8.10
2024-01-05T17:37:28.834Z,8.00
2024-01-05T17:39:57.119Z,8.00
2024-01-05T17:42:23.968Z,8.10
2024-01-05T17:44:53.238Z,8.00
2024-01-05T17:47:20.601Z,8.00
2024-01-05T17:49:48.840Z,8.00
2024-01-05T17:52:17.897Z,8.00
2024-01-05T17:54:44.794Z,8.10
2024-01-05T17:57:11.808Z,8.10
2024-01-05T17:59:39.498Z,8.10
2024-01-05T18:02:06.528Z,8.10
2024-01-05T18:04:33.668Z,8.10
2024-01-05T18:07:00.833Z,8.10
2024-01-05T18:09:27.737Z,8.10
2024-01-05T18:11:54.754Z,8.10
2024-01-05T18:14:22.715Z,8.10
2024-01-05T18:16:55.661Z,8.10
2024-01-05T18:19:22.597Z,8.10
2024-01-05T18:21:49.396Z,8.10
2024-01-05T18:24:16.371Z,8.00
2024-01-05T18:26:43.185Z,8.00
2024-01-05T18:29:20.555Z,8.10
2024-01-05T18:31:53.207Z,8.00
2024-01-05T18:34:22.994Z,8.00
2024-01-05T18:36:50.384Z,8.00
2024-01-05T18:39:17.343Z,8.00
2024-01-05T18:41:47.246Z,8.00
2024-01-05T18:44:15.388Z,8.00
2024-01-05T18:46:42.802Z,8.00
2024-01-05T18:49:10.813Z,8.10
2024-01-05T18:51:38.269Z,8.00
2024-01-05T18:54:07.937Z,8.10
2024-01-05T18:56:34.991Z,8.00
2024-01-05T18:59:03.104Z,8.00
2024-01-05T19:01:30.860Z,8.00
2024-01-05T19:03:59.611Z,7.90
2024-01-05T19:06:27.319Z,7.90
2024-01-05T19:08:54.283Z,7.90
2024-01-05T19:11:23.772Z,7.90
2024-01-05T19:13:50.566Z,7.80
2024-01-05T19:16:18.200Z,7.80
2024-01-05T19:18:45.238Z,7.80
2024-01-05T19:21:14.297Z,7.80
2024-01-05T19:23:41.160Z,7.80
2024-01-05T19:26:09.205Z,7.80
2024-01-05T19:28:36.058Z,7.80
2024-01-05T19:31:05.440Z,7.70
2024-01-05T19:33:33.468Z,7.70
2024-01-05T19:36:01.436Z,7.70
2024-01-05T19:38:28.371Z,7.70
2024-01-05T19:40:55.374Z,7.70
2024-01-05T19:43:22.385Z,7.60
2024-01-05T19:45:49.411Z,7.70
2024-01-05T19:48:16.987Z,7.70
2024-01-05T19:50:45.122Z,7.70
2024-01-05T19:53:11.850Z,7.70
2024-01-05T19:55:38.672Z,7.70
2024-01-05T19:58:05.362Z,7.70
2024-01-05T20:00:32.310Z,7.80
2024-01-05T20:02:59.603Z,7.70
2024-01-05T20:05:26.942Z,7.70
2024-01-05T20:07:57.519Z,7.70
2024-01-05T20:10:25.417Z,7.80
2024-01-05T20:12:52.191Z,7.70
2024-01-05T20:15:19.183Z,7.80
2024-01-05T20:17:46.385Z,7.80
2024-01-05T20:20:13.214Z,7.80
2024-01-05T20:22:41.421Z,7.70
2024-01-05T20:25:09.576Z,7.70
2024-01-05T20:27:43.387Z,7.70
2024-01-05T20:30:13.051Z,7.70
2024-01-05T20:32:43.301Z,7.80
2024-01-05T20:35:15.639Z,7.70
2024-01-05T20:37:42.438Z,7.70
2024-01-05T20:40:09.745Z,7.70
2024-01-05T20:42:37.824Z,7.70
2024-01-05T20:45:07.033Z,7.70
2024-01-05T20:47:34.065Z,7.70
2024-01-05T20:50:01.163Z,7.70
2024-01-05T20:52:28.320Z,7.70
2024-01-05T20:54:55.190Z,7.70
2024-01-05T20:57:24.606Z,7.70
2024-01-05T20:59:51.856Z,7.70
2024-01-05T21:02:18.784Z,7.70
2024-01-05T21:04:51.828Z,7.70
2024-01-05T21:07:28.065Z,7.70
2024-01-05T21:09:55.133Z,7.70
2024-01-05T21:12:25.271Z,7.70
2024-01-05T21:14:52.208Z,7.70
2024-01-05T21:17:19.383Z,7.70
2024-01-05T21:19:48.911Z,7.60
2024-01-05T21:22:16.143Z,7.70
2024-01-05T21:24:44.412Z,7.70
2024-01-05T21:27:11.704Z,7.60
2024-01-05T21:29:45.878Z,7.60
2024-01-05T21:32:13.606Z,7.70
2024-01-05T21:34:41.669Z,7.60
2024-01-05T21:37:09.146Z,7.60
2024-01-05T21:39:37.301Z,7.60
2024-01-05T21:42:05.446Z,7.60
2024-01-05T21:44:32.764Z,7.60
2024-01-05T21:46:59.801Z,7.50
2024-01-05T21:49:26.759Z,7.50
2024-01-05T21:51:55.059Z,7.60
2024-01-05T21:54:21.943Z,7.60
2024-01-05T21:56:48.648Z,7.60
2024-01-05T21:59:15.604Z,7.60
2024-01-05T22:01:42.415Z,7.60
2024-01-05T22:04:10.285Z,7.60
2024-01-05T22:06:38.265Z,7.60
2024-01-05T22:09:05.724Z,7.60
2024-01-05T22:11:32.619Z,7.60
2024-01-05T22:13:59.604Z,7.70
2024-01-05T22:16:26.591Z,7.70
2024-01-05T22:18:53.534Z,7.70
2024-01-05T22:21:20.574Z,7.70
2024-01-05T22:23:47.927Z,7.60
2024-01-05T22:26:22.202Z,7.60
2024-01-05T22:28:49.418Z,7.60
2024-01-05T22:31:17.848Z,7.60
2024-01-05T22:33:45.232Z,7.70
2024-01-05T22:36:13.092Z,7.70
2024-01-05T22:38:40.087Z,7.70
2024-01-05T22:41:07.444Z,7.60
2024-01-05T22:43:34.731Z,7.60
2024-01-05T22:46:05.533Z,7.60
2024-01-05T22:48:35.996Z,7.60
2024-01-05T22:51:04.316Z,7.60
2024-01-05T22:53:31.656Z,7.60
2024-01-05T22:55:58.766Z,7.60
2024-01-05T22:58:25.947Z,7.60
2024-01-05T23:00:53.598Z,7.60
2024-01-05T23:03:20.968Z,7.50
2024-01-05T23:05:50.502Z,7.60
2024-01-05T23:08:21.876Z,7.60
2024-01-05T23:10:50.630Z,7.60
2024-01-05T23:13:17.625Z,7.60
2024-01-05T23:15:44.825Z,7.60
2024-01-05T23:18:11.967Z,7.70
2024-01-05T23:20:39.004Z,7.70
2024-01-05T23:23:05.853Z,7.70
2024-01-05T23:25:32.610Z,7.70
2024-01-05T23:27:59.315Z,7.60
2024-01-05T23:30:26.200Z,7.70
2024-01-05T23:32:53.060Z,7.70
2024-01-05T23:35:19.929Z,7.60
2024-01-05T23:37:46.695Z,7.70
2024-01-05T23:40:13.505Z,7.60
2024-01-05T23:42:40.170Z,7.60
2024-01-05T23:45:07.166Z,7.60
2024-01-05T23:47:33.963Z,7.60
2024-01-05T23:50:01.293Z,7.60
2024-01-05T23:52:28.146Z,7.60
2024-01-05T23:54:55.406Z,7.60
2024-01-05T23:57:22.194Z,7.60
2024-01-05T23:59:48.947Z,7.60
